sensor_id;sensor_type;location;lat;lon;timestamp;P1;durP1;ratioP1;P2;durP2;ratioP2
62852;SDS011;49205;44.868;38.140;2022-11-15T00:02:41;32.73;;;17.02;;
62852;SDS011;49205;44.868;38.140;2022-11-15T00:05:28;33.50;;;17.52;;
62852;SDS011;49205;44.868;38.140;2022-11-15T00:08:15;33.05;;;19.82;;
62852;SDS011;49205;44.868;38.140;2022-11-15T00:11:03;35.08;;;18.42;;
62852;SDS011;49205;44.868;38.140;2022-11-15T00:13:51;29.92;;;18.52;;
62852;SDS011;49205;44.868;38.140;2022-11-15T00:16:39;30.70;;;18.98;;
62852;SDS011;49205;44.868;38.140;2022-11-15T00:19:26;36.65;;;19.95;;
62852;SDS011;49205;44.868;38.140;2022-11-15T00:22:13;36.83;;;20.70;;
62852;SDS011;49205;44.868;38.140;2022-11-15T00:25:00;38.65;;;22.62;;
62852;SDS011;49205;44.868;38.140;2022-11-15T00:27:48;29.05;;;20.43;;
62852;SDS011;49205;44.868;38.140;2022-11-15T00:30:36;34.27;;;19.45;;
62852;SDS011;49205;44.868;38.140;2022-11-15T00:33:24;36.68;;;20.27;;
62852;SDS011;49205;44.868;38.140;2022-11-15T00:36:11;33.83;;;18.55;;
62852;SDS011;49205;44.868;38.140;2022-11-15T00:38:58;29.80;;;18.42;;
62852;SDS011;49205;44.868;38.140;2022-11-15T00:41:45;30.92;;;17.57;;
62852;SDS011;49205;44.868;38.140;2022-11-15T00:44:32;28.87;;;16.80;;
62852;SDS011;49205;44.868;38.140;2022-11-15T00:47:19;30.30;;;19.80;;
62852;SDS011;49205;44.868;38.140;2022-11-15T00:50:06;29.82;;;18.87;;
62852;SDS011;49205;44.868;38.140;2022-11-15T00:52:53;32.30;;;18.98;;
62852;SDS011;49205;44.868;38.140;2022-11-15T00:55:40;33.10;;;19.15;;
62852;SDS011;49205;44.868;38.140;2022-11-15T00:58:27;32.67;;;19.57;;
62852;SDS011;49205;44.868;38.140;2022-11-15T01:01:14;33.83;;;18.82;;
62852;SDS011;49205;44.868;38.140;2022-11-15T01:04:02;35.23;;;19.48;;
62852;SDS011;49205;44.868;38.140;2022-11-15T01:06:49;34.43;;;19.23;;
62852;SDS011;49205;44.868;38.140;2022-11-15T01:09:36;32.93;;;19.90;;
62852;SDS011;49205;44.868;38.140;2022-11-15T01:12:23;34.23;;;21.02;;
62852;SDS011;49205;44.868;38.140;2022-11-15T01:15:10;29.85;;;18.70;;
62852;SDS011;49205;44.868;38.140;2022-11-15T01:17:57;29.52;;;19.17;;
62852;SDS011;49205;44.868;38.140;2022-11-15T01:20:43;32.98;;;18.05;;
62852;SDS011;49205;44.868;38.140;2022-11-15T01:23:30;38.10;;;20.62;;
62852;SDS011;49205;44.868;38.140;2022-11-15T01:26:18;35.33;;;19.20;;
62852;SDS011;49205;44.868;38.140;2022-11-15T01:29:05;33.33;;;17.90;;
62852;SDS011;49205;44.868;38.140;2022-11-15T01:31:52;32.93;;;19.07;;
62852;SDS011;49205;44.868;38.140;2022-11-15T01:34:39;37.45;;;21.02;;
62852;SDS011;49205;44.868;38.140;2022-11-15T01:37:26;34.27;;;20.43;;
62852;SDS011;49205;44.868;38.140;2022-11-15T01:40:13;34.95;;;18.45;;
62852;SDS011;49205;44.868;38.140;2022-11-15T01:43:18;38.08;;;20.35;;
62852;SDS011;49205;44.868;38.140;2022-11-15T01:46:29;35.75;;;18.82;;
62852;SDS011;49205;44.868;38.140;2022-11-15T01:49:17;33.10;;;18.75;;
62852;SDS011;49205;44.868;38.140;2022-11-15T01:52:07;29.90;;;17.52;;
62852;SDS011;49205;44.868;38.140;2022-11-15T01:55:02;25.88;;;17.55;;
62852;SDS011;49205;44.868;38.140;2022-11-15T01:57:58;27.55;;;17.62;;
62852;SDS011;49205;44.868;38.140;2022-11-15T02:00:42;26.65;;;17.05;;
62852;SDS011;49205;44.868;38.140;2022-11-15T02:03:33;27.50;;;15.63;;
62852;SDS011;49205;44.868;38.140;2022-11-15T02:06:30;27.77;;;15.30;;
62852;SDS011;49205;44.868;38.140;2022-11-15T02:09:18;30.50;;;16.23;;
62852;SDS011;49205;44.868;38.140;2022-11-15T02:12:06;30.62;;;15.88;;
62852;SDS011;49205;44.868;38.140;2022-11-15T02:14:55;23.52;;;15.95;;
62852;SDS011;49205;44.868;38.140;2022-11-15T02:20:52;30.57;;;15.50;;
62852;SDS011;49205;44.868;38.140;2022-11-15T02:23:52;27.87;;;15.18;;
62852;SDS011;49205;44.868;38.140;2022-11-15T02:26:41;26.37;;;15.35;;
62852;SDS011;49205;44.868;38.140;2022-11-15T02:32:54;31.10;;;16.97;;
62852;SDS011;49205;44.868;38.140;2022-11-15T02:35:43;32.78;;;19.52;;
62852;SDS011;49205;44.868;38.140;2022-11-15T02:38:36;30.82;;;17.32;;
62852;SDS011;49205;44.868;38.140;2022-11-15T02:44:39;27.67;;;17.90;;
62852;SDS011;49205;44.868;38.140;2022-11-15T02:47:27;23.55;;;14.93;;
62852;SDS011;49205;44.868;38.140;2022-11-15T02:50:18;26.70;;;15.83;;
62852;SDS011;49205;44.868;38.140;2022-11-15T02:53:07;31.45;;;15.58;;
62852;SDS011;49205;44.868;38.140;2022-11-15T02:55:54;35.13;;;16.85;;
62852;SDS011;49205;44.868;38.140;2022-11-15T02:58:47;29.98;;;18.30;;
62852;SDS011;49205;44.868;38.140;2022-11-15T03:01:42;36.58;;;18.80;;
62852;SDS011;49205;44.868;38.140;2022-11-15T03:07:48;36.13;;;18.37;;
62852;SDS011;49205;44.868;38.140;2022-11-15T03:13:53;33.48;;;18.27;;
62852;SDS011;49205;44.868;38.140;2022-11-15T03:17:01;57.85;;;28.07;;
62852;SDS011;49205;44.868;38.140;2022-11-15T03:22:24;78.83;;;38.53;;
62852;SDS011;49205;44.868;38.140;2022-11-15T03:25:21;58.95;;;25.72;;
62852;SDS011;49205;44.868;38.140;2022-11-15T03:28:05;48.60;;;24.20;;
62852;SDS011;49205;44.868;38.140;2022-11-15T03:30:54;62.38;;;28.45;;
62852;SDS011;49205;44.868;38.140;2022-11-15T03:33:42;72.00;;;36.20;;
62852;SDS011;49205;44.868;38.140;2022-11-15T03:36:29;56.68;;;28.47;;
62852;SDS011;49205;44.868;38.140;2022-11-15T03:39:18;40.48;;;21.82;;
62852;SDS011;49205;44.868;38.140;2022-11-15T03:47:51;38.83;;;20.50;;
62852;SDS011;49205;44.868;38.140;2022-11-15T03:50:39;32.23;;;18.98;;
62852;SDS011;49205;44.868;38.140;2022-11-15T03:53:28;43.40;;;21.10;;
62852;SDS011;49205;44.868;38.140;2022-11-15T03:56:16;34.73;;;16.27;;
62852;SDS011;49205;44.868;38.140;2022-11-15T03:59:04;25.45;;;15.90;;
62852;SDS011;49205;44.868;38.140;2022-11-15T04:01:51;26.02;;;14.60;;
62852;SDS011;49205;44.868;38.140;2022-11-15T04:04:38;26.33;;;14.85;;
62852;SDS011;49205;44.868;38.140;2022-11-15T04:07:25;27.67;;;16.05;;
62852;SDS011;49205;44.868;38.140;2022-11-15T04:10:12;28.60;;;14.90;;
62852;SDS011;49205;44.868;38.140;2022-11-15T04:13:01;26.00;;;14.45;;
62852;SDS011;49205;44.868;38.140;2022-11-15T04:15:48;27.70;;;15.10;;
62852;SDS011;49205;44.868;38.140;2022-11-15T04:18:35;31.93;;;17.32;;
62852;SDS011;49205;44.868;38.140;2022-11-15T04:21:23;45.95;;;20.32;;
62852;SDS011;49205;44.868;38.140;2022-11-15T04:24:28;57.48;;;26.87;;
62852;SDS011;49205;44.868;38.140;2022-11-15T04:27:15;42.70;;;21.45;;
62852;SDS011;49205;44.868;38.140;2022-11-15T04:30:02;38.08;;;21.17;;
62852;SDS011;49205;44.868;38.140;2022-11-15T04:32:50;33.42;;;18.32;;
62852;SDS011;49205;44.868;38.140;2022-11-15T04:35:37;34.43;;;17.52;;
62852;SDS011;49205;44.868;38.140;2022-11-15T04:38:24;31.20;;;16.60;;
62852;SDS011;49205;44.868;38.140;2022-11-15T04:41:11;40.05;;;20.62;;
62852;SDS011;49205;44.868;38.140;2022-11-15T04:43:59;30.62;;;15.60;;
62852;SDS011;49205;44.868;38.140;2022-11-15T04:46:45;30.52;;;16.20;;
62852;SDS011;49205;44.868;38.140;2022-11-15T04:49:32;32.60;;;18.35;;
62852;SDS011;49205;44.868;38.140;2022-11-15T04:52:19;36.45;;;18.75;;
62852;SDS011;49205;44.868;38.140;2022-11-15T04:55:07;32.78;;;19.12;;
62852;SDS011;49205;44.868;38.140;2022-11-15T04:58:02;38.00;;;19.80;;
62852;SDS011;49205;44.868;38.140;2022-11-15T05:00:46;41.92;;;19.60;;
62852;SDS011;49205;44.868;38.140;2022-11-15T05:03:33;38.42;;;18.55;;
62852;SDS011;49205;44.868;38.140;2022-11-15T05:06:38;44.60;;;22.17;;
62852;SDS011;49205;44.868;38.140;2022-11-15T05:09:25;46.15;;;20.85;;
62852;SDS011;49205;44.868;38.140;2022-11-15T05:12:12;39.88;;;17.85;;
62852;SDS011;49205;44.868;38.140;2022-11-15T05:14:59;35.98;;;20.70;;
62852;SDS011;49205;44.868;38.140;2022-11-15T05:17:46;30.62;;;18.77;;
62852;SDS011;49205;44.868;38.140;2022-11-15T05:20:34;30.00;;;17.65;;
62852;SDS011;49205;44.868;38.140;2022-11-15T05:23:21;33.18;;;18.75;;
62852;SDS011;49205;44.868;38.140;2022-11-15T05:26:09;30.57;;;17.52;;
62852;SDS011;49205;44.868;38.140;2022-11-15T05:28:57;31.20;;;16.82;;
62852;SDS011;49205;44.868;38.140;2022-11-15T05:31:45;29.42;;;16.87;;
62852;SDS011;49205;44.868;38.140;2022-11-15T05:34:32;36.60;;;18.80;;
62852;SDS011;49205;44.868;38.140;2022-11-15T05:37:19;30.32;;;18.00;;
62852;SDS011;49205;44.868;38.140;2022-11-15T05:40:06;44.80;;;18.05;;
62852;SDS011;49205;44.868;38.140;2022-11-15T05:42:54;35.70;;;20.92;;
62852;SDS011;49205;44.868;38.140;2022-11-15T05:45:41;40.25;;;22.90;;
62852;SDS011;49205;44.868;38.140;2022-11-15T05:48:28;41.42;;;21.60;;
62852;SDS011;49205;44.868;38.140;2022-11-15T05:51:15;40.17;;;20.85;;
62852;SDS011;49205;44.868;38.140;2022-11-15T05:54:04;51.28;;;25.17;;
62852;SDS011;49205;44.868;38.140;2022-11-15T05:56:51;70.67;;;32.38;;
62852;SDS011;49205;44.868;38.140;2022-11-15T05:59:40;40.30;;;21.20;;
62852;SDS011;49205;44.868;38.140;2022-11-15T06:02:28;23.47;;;14.53;;
62852;SDS011;49205;44.868;38.140;2022-11-15T06:05:15;23.85;;;13.50;;
62852;SDS011;49205;44.868;38.140;2022-11-15T06:08:02;25.70;;;13.43;;
62852;SDS011;49205;44.868;38.140;2022-11-15T06:10:49;26.62;;;14.15;;
62852;SDS011;49205;44.868;38.140;2022-11-15T06:13:36;27.13;;;15.35;;
62852;SDS011;49205;44.868;38.140;2022-11-15T06:16:23;29.85;;;17.82;;
62852;SDS011;49205;44.868;38.140;2022-11-15T06:19:10;37.17;;;18.85;;
62852;SDS011;49205;44.868;38.140;2022-11-15T06:21:58;29.60;;;18.73;;
62852;SDS011;49205;44.868;38.140;2022-11-15T06:24:45;31.45;;;19.20;;
62852;SDS011;49205;44.868;38.140;2022-11-15T06:27:32;25.68;;;15.88;;
62852;SDS011;49205;44.868;38.140;2022-11-15T06:30:19;20.50;;;13.98;;
62852;SDS011;49205;44.868;38.140;2022-11-15T06:33:07;20.27;;;12.63;;
62852;SDS011;49205;44.868;38.140;2022-11-15T06:35:54;18.92;;;12.85;;
62852;SDS011;49205;44.868;38.140;2022-11-15T06:38:41;21.05;;;14.38;;
62852;SDS011;49205;44.868;38.140;2022-11-15T06:41:29;22.25;;;14.50;;
62852;SDS011;49205;44.868;38.140;2022-11-15T06:44:16;23.20;;;14.18;;
62852;SDS011;49205;44.868;38.140;2022-11-15T06:47:03;21.95;;;15.08;;
62852;SDS011;49205;44.868;38.140;2022-11-15T06:49:51;22.93;;;15.40;;
62852;SDS011;49205;44.868;38.140;2022-11-15T06:52:37;25.48;;;16.85;;
62852;SDS011;49205;44.868;38.140;2022-11-15T06:55:25;31.87;;;14.87;;
62852;SDS011;49205;44.868;38.140;2022-11-15T06:58:12;28.17;;;16.07;;
62852;SDS011;49205;44.868;38.140;2022-11-15T07:01:03;25.15;;;15.90;;
62852;SDS011;49205;44.868;38.140;2022-11-15T07:03:55;26.85;;;16.23;;
62852;SDS011;49205;44.868;38.140;2022-11-15T07:06:42;20.70;;;14.15;;
62852;SDS011;49205;44.868;38.140;2022-11-15T07:09:30;25.10;;;15.32;;
62852;SDS011;49205;44.868;38.140;2022-11-15T07:12:18;30.17;;;14.93;;
62852;SDS011;49205;44.868;38.140;2022-11-15T07:15:05;23.20;;;15.20;;
62852;SDS011;49205;44.868;38.140;2022-11-15T07:17:53;27.02;;;14.28;;
62852;SDS011;49205;44.868;38.140;2022-11-15T07:20:40;31.45;;;14.73;;
62852;SDS011;49205;44.868;38.140;2022-11-15T07:23:27;28.73;;;15.28;;
62852;SDS011;49205;44.868;38.140;2022-11-15T07:26:14;27.55;;;15.85;;
62852;SDS011;49205;44.868;38.140;2022-11-15T07:29:01;33.42;;;16.70;;
62852;SDS011;49205;44.868;38.140;2022-11-15T07:31:48;25.00;;;15.48;;
62852;SDS011;49205;44.868;38.140;2022-11-15T07:34:36;29.63;;;16.65;;
62852;SDS011;49205;44.868;38.140;2022-11-15T07:37:23;31.42;;;16.40;;
62852;SDS011;49205;44.868;38.140;2022-11-15T07:40:10;29.87;;;17.70;;
62852;SDS011;49205;44.868;38.140;2022-11-15T07:43:05;27.40;;;14.33;;
62852;SDS011;49205;44.868;38.140;2022-11-15T07:45:54;29.23;;;15.05;;
62852;SDS011;49205;44.868;38.140;2022-11-15T07:48:41;32.78;;;17.25;;
62852;SDS011;49205;44.868;38.140;2022-11-15T10:51:01;26.57;;;14.98;;
62852;SDS011;49205;44.868;38.140;2022-11-15T10:53:37;30.48;;;15.83;;
62852;SDS011;49205;44.868;38.140;2022-11-15T10:56:06;29.95;;;13.38;;
62852;SDS011;49205;44.868;38.140;2022-11-15T10:58:44;28.57;;;17.25;;
62852;SDS011;49205;44.868;38.140;2022-11-15T11:01:22;34.35;;;17.32;;
62852;SDS011;49205;44.868;38.140;2022-11-15T11:03:45;24.98;;;13.83;;
62852;SDS011;49205;44.868;38.140;2022-11-15T11:06:28;25.75;;;15.90;;
62852;SDS011;49205;44.868;38.140;2022-11-15T11:09:02;21.12;;;12.75;;
62852;SDS011;49205;44.868;38.140;2022-11-15T11:11:46;24.00;;;13.18;;
62852;SDS011;49205;44.868;38.140;2022-11-15T11:14:22;12.80;;;8.65;;
62852;SDS011;49205;44.868;38.140;2022-11-15T11:22:22;14.65;;;7.03;;
62852;SDS011;49205;44.868;38.140;2022-11-15T11:30:08;12.00;;;6.92;;
62852;SDS011;49205;44.868;38.140;2022-11-15T11:41:03;7.25;;;5.60;;
62852;SDS011;49205;44.868;38.140;2022-11-15T11:46:29;9.85;;;6.40;;
62852;SDS011;49205;44.868;38.140;2022-11-15T11:49:09;13.43;;;7.97;;
62852;SDS011;49205;44.868;38.140;2022-11-15T11:51:48;17.07;;;8.65;;
62852;SDS011;49205;44.868;38.140;2022-11-15T11:54:26;19.27;;;11.55;;
62852;SDS011;49205;44.868;38.140;2022-11-15T11:56:55;28.42;;;13.95;;
62852;SDS011;49205;44.868;38.140;2022-11-15T11:59:36;23.67;;;12.53;;
62852;SDS011;49205;44.868;38.140;2022-11-15T12:02:17;18.30;;;10.35;;
62852;SDS011;49205;44.868;38.140;2022-11-15T12:04:48;17.57;;;9.38;;
62852;SDS011;49205;44.868;38.140;2022-11-15T12:07:27;18.37;;;11.03;;
62852;SDS011;49205;44.868;38.140;2022-11-15T12:09:58;24.02;;;13.55;;
62852;SDS011;49205;44.868;38.140;2022-11-15T12:12:35;23.98;;;13.43;;
62852;SDS011;49205;44.868;38.140;2022-11-15T12:15:23;28.35;;;14.83;;
62852;SDS011;49205;44.868;38.140;2022-11-15T12:17:56;21.23;;;11.78;;
62852;SDS011;49205;44.868;38.140;2022-11-15T12:20:29;23.75;;;11.88;;
62852;SDS011;49205;44.868;38.140;2022-11-15T12:23:06;27.00;;;16.62;;
62852;SDS011;49205;44.868;38.140;2022-11-15T12:25:42;15.25;;;7.72;;
62852;SDS011;49205;44.868;38.140;2022-11-15T12:28:19;14.98;;;8.43;;
62852;SDS011;49205;44.868;38.140;2022-11-15T12:31:01;17.50;;;8.23;;
62852;SDS011;49205;44.868;38.140;2022-11-15T12:33:43;21.97;;;9.28;;
62852;SDS011;49205;44.868;38.140;2022-11-15T12:41:32;33.42;;;17.30;;
62852;SDS011;49205;44.868;38.140;2022-11-15T12:44:03;28.60;;;15.05;;
62852;SDS011;49205;44.868;38.140;2022-11-15T12:59:55;34.15;;;16.20;;
62852;SDS011;49205;44.868;38.140;2022-11-15T13:02:42;31.23;;;14.70;;
62852;SDS011;49205;44.868;38.140;2022-11-15T13:10:29;25.20;;;14.40;;
62852;SDS011;49205;44.868;38.140;2022-11-15T13:13:03;25.92;;;13.80;;
62852;SDS011;49205;44.868;38.140;2022-11-15T13:18:29;28.07;;;13.45;;
62852;SDS011;49205;44.868;38.140;2022-11-15T13:21:02;26.70;;;12.05;;
62852;SDS011;49205;44.868;38.140;2022-11-15T13:23:34;17.75;;;10.43;;
62852;SDS011;49205;44.868;38.140;2022-11-15T13:26:06;18.60;;;9.35;;
62852;SDS011;49205;44.868;38.140;2022-11-15T13:33:47;114.62;;;53.98;;
62852;SDS011;49205;44.868;38.140;2022-11-15T13:36:21;40.38;;;21.15;;
62852;SDS011;49205;44.868;38.140;2022-11-15T13:38:58;34.18;;;21.62;;
62852;SDS011;49205;44.868;38.140;2022-11-15T13:41:30;28.92;;;17.35;;
62852;SDS011;49205;44.868;38.140;2022-11-15T13:44:00;151.42;;;59.75;;
62852;SDS011;49205;44.868;38.140;2022-11-15T13:46:31;160.82;;;66.82;;
62852;SDS011;49205;44.868;38.140;2022-11-15T13:49:02;730.83;;;332.70;;
62852;SDS011;49205;44.868;38.140;2022-11-15T13:54:17;413.45;;;170.72;;
62852;SDS011;49205;44.868;38.140;2022-11-15T13:57:05;408.12;;;175.57;;
62852;SDS011;49205;44.868;38.140;2022-11-15T13:59:46;336.23;;;145.12;;
62852;SDS011;49205;44.868;38.140;2022-11-15T14:02:17;126.05;;;61.23;;
62852;SDS011;49205;44.868;38.140;2022-11-15T14:04:50;84.35;;;41.35;;
62852;SDS011;49205;44.868;38.140;2022-11-15T14:07:22;52.50;;;26.05;;
62852;SDS011;49205;44.868;38.140;2022-11-15T14:09:53;88.90;;;39.98;;
62852;SDS011;49205;44.868;38.140;2022-11-15T14:12:27;75.47;;;32.58;;
62852;SDS011;49205;44.868;38.140;2022-11-15T14:14:57;73.17;;;32.78;;
62852;SDS011;49205;44.868;38.140;2022-11-15T14:20:02;56.48;;;28.57;;
62852;SDS011;49205;44.868;38.140;2022-11-15T14:22:33;61.92;;;29.92;;
62852;SDS011;49205;44.868;38.140;2022-11-15T14:30:52;47.65;;;23.20;;
62852;SDS011;49205;44.868;38.140;2022-11-15T14:33:30;65.85;;;28.27;;
62852;SDS011;49205;44.868;38.140;2022-11-15T14:36:11;71.47;;;32.90;;
62852;SDS011;49205;44.868;38.140;2022-11-15T14:38:42;64.10;;;33.08;;
62852;SDS011;49205;44.868;38.140;2022-11-15T14:43:53;84.30;;;37.60;;
62852;SDS011;49205;44.868;38.140;2022-11-15T14:46:22;109.75;;;47.88;;
62852;SDS011;49205;44.868;38.140;2022-11-15T14:48:51;89.70;;;41.08;;
62852;SDS011;49205;44.868;38.140;2022-11-15T14:51:20;72.58;;;33.60;;
62852;SDS011;49205;44.868;38.140;2022-11-15T14:53:50;100.00;;;42.33;;
62852;SDS011;49205;44.868;38.140;2022-11-15T14:56:20;105.43;;;44.90;;
62852;SDS011;49205;44.868;38.140;2022-11-15T14:58:49;111.80;;;42.48;;
62852;SDS011;49205;44.868;38.140;2022-11-15T15:01:22;112.15;;;44.40;;
62852;SDS011;49205;44.868;38.140;2022-11-15T15:03:53;114.85;;;43.85;;
62852;SDS011;49205;44.868;38.140;2022-11-15T15:06:25;88.65;;;35.13;;
62852;SDS011;49205;44.868;38.140;2022-11-15T15:08:54;74.65;;;31.27;;
62852;SDS011;49205;44.868;38.140;2022-11-15T15:11:24;75.85;;;35.38;;
62852;SDS011;49205;44.868;38.140;2022-11-15T15:13:55;87.92;;;36.45;;
62852;SDS011;49205;44.868;38.140;2022-11-15T15:16:26;89.67;;;39.90;;
62852;SDS011;49205;44.868;38.140;2022-11-15T15:18:55;75.80;;;35.65;;
62852;SDS011;49205;44.868;38.140;2022-11-15T15:21:25;72.65;;;34.75;;
62852;SDS011;49205;44.868;38.140;2022-11-15T15:23:55;75.17;;;35.20;;
62852;SDS011;49205;44.868;38.140;2022-11-15T15:26:24;68.52;;;31.97;;
62852;SDS011;49205;44.868;38.140;2022-11-15T15:28:53;80.45;;;34.92;;
62852;SDS011;49205;44.868;38.140;2022-11-15T15:31:22;69.58;;;32.80;;
62852;SDS011;49205;44.868;38.140;2022-11-15T15:33:51;65.75;;;31.05;;
62852;SDS011;49205;44.868;38.140;2022-11-15T15:36:21;61.80;;;31.05;;
62852;SDS011;49205;44.868;38.140;2022-11-15T15:38:50;62.25;;;30.10;;
62852;SDS011;49205;44.868;38.140;2022-11-15T15:41:19;67.95;;;31.85;;
62852;SDS011;49205;44.868;38.140;2022-11-15T15:43:49;59.58;;;30.72;;
62852;SDS011;49205;44.868;38.140;2022-11-15T15:46:18;54.80;;;29.10;;
62852;SDS011;49205;44.868;38.140;2022-11-15T15:48:48;64.77;;;28.67;;
62852;SDS011;49205;44.868;38.140;2022-11-15T15:51:17;64.45;;;29.72;;
62852;SDS011;49205;44.868;38.140;2022-11-15T15:53:47;53.33;;;25.37;;
62852;SDS011;49205;44.868;38.140;2022-11-15T15:56:17;96.67;;;35.50;;
62852;SDS011;49205;44.868;38.140;2022-11-15T15:58:46;65.03;;;28.32;;
62852;SDS011;49205;44.868;38.140;2022-11-15T16:01:15;64.45;;;30.55;;
62852;SDS011;49205;44.868;38.140;2022-11-15T16:03:44;65.05;;;32.28;;
62852;SDS011;49205;44.868;38.140;2022-11-15T16:07:15;90.03;;;33.92;;
62852;SDS011;49205;44.868;38.140;2022-11-15T16:09:05;70.87;;;30.85;;
62852;SDS011;49205;44.868;38.140;2022-11-15T16:11:34;83.92;;;32.95;;
62852;SDS011;49205;44.868;38.140;2022-11-15T16:14:03;62.08;;;29.55;;
62852;SDS011;49205;44.868;38.140;2022-11-15T16:16:32;70.95;;;27.90;;
62852;SDS011;49205;44.868;38.140;2022-11-15T16:19:02;43.42;;;22.87;;
62852;SDS011;49205;44.868;38.140;2022-11-15T16:21:32;49.73;;;22.67;;
62852;SDS011;49205;44.868;38.140;2022-11-15T16:24:01;66.33;;;25.48;;
62852;SDS011;49205;44.868;38.140;2022-11-15T16:26:31;56.23;;;22.42;;
62852;SDS011;49205;44.868;38.140;2022-11-15T16:29:02;73.33;;;24.50;;
62852;SDS011;49205;44.868;38.140;2022-11-15T16:31:33;59.33;;;23.98;;
62852;SDS011;49205;44.868;38.140;2022-11-15T16:34:02;71.57;;;24.90;;
62852;SDS011;49205;44.868;38.140;2022-11-15T16:36:32;62.45;;;23.73;;
62852;SDS011;49205;44.868;38.140;2022-11-15T16:39:02;125.15;;;28.65;;
62852;SDS011;49205;44.868;38.140;2022-11-15T16:41:31;74.58;;;27.55;;
62852;SDS011;49205;44.868;38.140;2022-11-15T16:44:00;77.80;;;25.62;;
62852;SDS011;49205;44.868;38.140;2022-11-15T16:46:29;67.92;;;25.27;;
62852;SDS011;49205;44.868;38.140;2022-11-15T16:48:59;61.80;;;27.35;;
62852;SDS011;49205;44.868;38.140;2022-11-15T16:51:28;50.33;;;25.27;;
62852;SDS011;49205;44.868;38.140;2022-11-15T16:53:57;52.33;;;22.07;;
62852;SDS011;49205;44.868;38.140;2022-11-15T16:56:26;51.85;;;22.22;;
62852;SDS011;49205;44.868;38.140;2022-11-15T16:58:57;52.05;;;23.00;;
62852;SDS011;49205;44.868;38.140;2022-11-15T17:01:28;38.40;;;21.70;;
62852;SDS011;49205;44.868;38.140;2022-11-15T17:03:59;56.30;;;21.68;;
62852;SDS011;49205;44.868;38.140;2022-11-15T17:06:30;43.15;;;22.65;;
62852;SDS011;49205;44.868;38.140;2022-11-15T17:09:00;47.93;;;21.23;;
62852;SDS011;49205;44.868;38.140;2022-11-15T17:11:29;61.80;;;23.73;;
62852;SDS011;49205;44.868;38.140;2022-11-15T17:13:58;54.25;;;23.27;;
62852;SDS011;49205;44.868;38.140;2022-11-15T17:16:27;52.53;;;22.90;;
62852;SDS011;49205;44.868;38.140;2022-11-15T17:18:57;61.95;;;24.37;;
62852;SDS011;49205;44.868;38.140;2022-11-15T17:21:26;56.80;;;25.23;;
62852;SDS011;49205;44.868;38.140;2022-11-15T17:23:55;52.58;;;23.90;;
62852;SDS011;49205;44.868;38.140;2022-11-15T17:26:25;49.40;;;22.82;;
62852;SDS011;49205;44.868;38.140;2022-11-15T17:28:55;47.33;;;21.68;;
62852;SDS011;49205;44.868;38.140;2022-11-15T17:31:25;48.83;;;22.95;;
62852;SDS011;49205;44.868;38.140;2022-11-15T17:33:56;50.45;;;25.02;;
62852;SDS011;49205;44.868;38.140;2022-11-15T17:36:25;55.17;;;23.38;;
62852;SDS011;49205;44.868;38.140;2022-11-15T17:38:54;50.78;;;22.77;;
62852;SDS011;49205;44.868;38.140;2022-11-15T17:41:23;47.03;;;23.22;;
62852;SDS011;49205;44.868;38.140;2022-11-15T17:43:52;48.50;;;25.27;;
62852;SDS011;49205;44.868;38.140;2022-11-15T17:46:24;49.60;;;24.27;;
62852;SDS011;49205;44.868;38.140;2022-11-15T17:48:54;55.43;;;26.55;;
62852;SDS011;49205;44.868;38.140;2022-11-15T17:51:24;49.13;;;25.32;;
62852;SDS011;49205;44.868;38.140;2022-11-15T17:53:54;63.70;;;26.77;;
62852;SDS011;49205;44.868;38.140;2022-11-15T17:56:24;54.67;;;25.27;;
62852;SDS011;49205;44.868;38.140;2022-11-15T17:58:55;58.78;;;25.48;;
62852;SDS011;49205;44.868;38.140;2022-11-15T18:01:29;55.00;;;25.50;;
62852;SDS011;49205;44.868;38.140;2022-11-15T18:03:59;65.97;;;28.60;;
62852;SDS011;49205;44.868;38.140;2022-11-15T18:06:31;54.13;;;26.07;;
62852;SDS011;49205;44.868;38.140;2022-11-15T18:09:01;53.70;;;27.00;;
62852;SDS011;49205;44.868;38.140;2022-11-15T18:11:35;43.65;;;24.82;;
62852;SDS011;49205;44.868;38.140;2022-11-15T18:14:06;60.73;;;28.73;;
62852;SDS011;49205;44.868;38.140;2022-11-15T18:16:37;45.23;;;24.82;;
62852;SDS011;49205;44.868;38.140;2022-11-15T18:19:06;47.70;;;25.70;;
62852;SDS011;49205;44.868;38.140;2022-11-15T18:21:38;45.05;;;22.60;;
62852;SDS011;49205;44.868;38.140;2022-11-15T18:24:25;39.42;;;23.95;;
62852;SDS011;49205;44.868;38.140;2022-11-15T18:26:56;43.87;;;24.37;;
62852;SDS011;49205;44.868;38.140;2022-11-15T18:29:25;47.55;;;24.15;;
62852;SDS011;49205;44.868;38.140;2022-11-15T18:31:54;41.90;;;23.05;;
62852;SDS011;49205;44.868;38.140;2022-11-15T18:34:27;37.35;;;22.13;;
62852;SDS011;49205;44.868;38.140;2022-11-15T18:36:58;49.90;;;25.25;;
62852;SDS011;49205;44.868;38.140;2022-11-15T18:39:29;41.95;;;24.57;;
62852;SDS011;49205;44.868;38.140;2022-11-15T18:41:58;44.33;;;23.27;;
62852;SDS011;49205;44.868;38.140;2022-11-15T18:44:28;42.40;;;23.55;;
62852;SDS011;49205;44.868;38.140;2022-11-15T18:46:57;38.92;;;20.75;;
62852;SDS011;49205;44.868;38.140;2022-11-15T18:49:26;50.05;;;25.30;;
62852;SDS011;49205;44.868;38.140;2022-11-15T18:52:02;45.23;;;23.52;;
62852;SDS011;49205;44.868;38.140;2022-11-15T18:54:31;45.58;;;25.60;;
62852;SDS011;49205;44.868;38.140;2022-11-15T18:57:01;39.85;;;23.50;;
62852;SDS011;49205;44.868;38.140;2022-11-15T18:59:31;43.92;;;23.77;;
62852;SDS011;49205;44.868;38.140;2022-11-15T19:02:00;37.28;;;20.37;;
62852;SDS011;49205;44.868;38.140;2022-11-15T19:04:29;29.77;;;20.12;;
62852;SDS011;49205;44.868;38.140;2022-11-15T19:06:58;36.13;;;21.23;;
62852;SDS011;49205;44.868;38.140;2022-11-15T19:09:27;33.10;;;20.55;;
62852;SDS011;49205;44.868;38.140;2022-11-15T19:11:58;34.05;;;20.27;;
62852;SDS011;49205;44.868;38.140;2022-11-15T19:14:27;45.23;;;22.75;;
62852;SDS011;49205;44.868;38.140;2022-11-15T19:16:56;37.35;;;20.32;;
62852;SDS011;49205;44.868;38.140;2022-11-15T19:19:26;42.78;;;22.77;;
62852;SDS011;49205;44.868;38.140;2022-11-15T19:21:55;38.80;;;20.25;;
62852;SDS011;49205;44.868;38.140;2022-11-15T19:24:24;44.18;;;20.62;;
62852;SDS011;49205;44.868;38.140;2022-11-15T19:26:53;35.30;;;20.20;;
62852;SDS011;49205;44.868;38.140;2022-11-15T19:29:22;34.98;;;19.67;;
62852;SDS011;49205;44.868;38.140;2022-11-15T19:31:51;33.13;;;19.15;;
62852;SDS011;49205;44.868;38.140;2022-11-15T19:34:20;38.95;;;21.48;;
62852;SDS011;49205;44.868;38.140;2022-11-15T19:36:49;32.33;;;17.57;;
62852;SDS011;49205;44.868;38.140;2022-11-15T19:39:18;33.75;;;19.55;;
62852;SDS011;49205;44.868;38.140;2022-11-15T19:41:47;37.53;;;21.65;;
62852;SDS011;49205;44.868;38.140;2022-11-15T19:44:18;33.10;;;19.67;;
62852;SDS011;49205;44.868;38.140;2022-11-15T19:46:48;32.25;;;19.02;;
62852;SDS011;49205;44.868;38.140;2022-11-15T19:49:17;33.58;;;18.82;;
62852;SDS011;49205;44.868;38.140;2022-11-15T19:51:47;28.60;;;17.37;;